Time;durP1;ratioP1;P1;durP2;ratioP2;P2;SDS_P1;SDS_P2;PMS_P1;PMS_P2;Temp;Humidity;BMP_temperature;BMP_pressure;BME280_temperature;BME280_humidity;BME280_pressure;Samples;Min_cycle;Max_cycle;Signal;HPM_P1;HPM_P2
2023/06/19 00:00:15;;;;;;;3.88;3.45;;;27.60;38.70;;;;;;5034529;28;20074;-62
2023/06/19 00:02:43;;;;;;;4.28;3.60;;;27.60;38.70;;;;;;5019031;28;20057;-65
2023/06/19 00:05:09;;;;;;;5.35;3.70;;;27.60;38.80;;;;;;5033385;28;20096;-64
2023/06/19 00:07:38;;;;;;;3.60;3.22;;;27.50;38.80;;;;;;5041103;28;20041;-64
2023/06/19 00:10:06;;;;;;;5.65;3.70;;;27.50;38.80;;;;;;5033840;28;20037;-64
2023/06/19 00:12:32;;;;;;;4.53;3.50;;;27.50;38.90;;;;;;5018324;28;20364;-62
2023/06/19 00:14:58;;;;;;;5.38;3.78;;;27.50;39.00;;;;;;5036215;28;20109;-64
2023/06/19 00:17:26;;;;;;;4.80;4.05;;;27.50;39.00;;;;;;5035621;28;20036;-64
2023/06/19 00:19:52;;;;;;;4.57;3.95;;;27.50;39.10;;;;;;5034610;28;20478;-63
2023/06/19 00:22:18;;;;;;;4.47;3.63;;;27.50;39.80;;;;;;5036823;28;20063;-65
2023/06/19 00:24:44;;;;;;;4.20;3.65;;;27.50;39.20;;;;;;5036843;28;20041;-64
2023/06/19 00:27:10;;;;;;;3.55;3.22;;;27.50;39.30;;;;;;5034997;28;20018;-64
2023/06/19 00:29:36;;;;;;;3.65;3.30;;;27.50;39.30;;;;;;5033884;28;20036;-63
2023/06/19 00:32:02;;;;;;;3.83;3.45;;;27.50;39.40;;;;;;5020027;28;20029;-62
2023/06/19 00:34:30;;;;;;;3.75;3.20;;;27.40;39.40;;;;;;5015464;28;20184;-65
2023/06/19 00:36:57;;;;;;;4.55;3.92;;;27.40;39.50;;;;;;5015834;28;20079;-62
2023/06/19 00:39:23;;;;;;;3.40;3.10;;;27.50;39.60;;;;;;5017301;28;20077;-62
2023/06/19 00:41:53;;;;;;;5.18;3.42;;;27.50;39.70;;;;;;5036209;28;20021;-64
2023/06/19 00:44:19;;;;;;;3.65;3.35;;;27.40;39.70;;;;;;5034598;28;20076;-64
2023/06/19 00:46:46;;;;;;;5.05;3.40;;;27.40;39.80;;;;;;5039281;28;20017;-61
2023/06/19 00:49:13;;;;;;;4.22;3.20;;;27.40;39.90;;;;;;5032562;28;20060;-64
2023/06/19 00:51:39;;;;;;;3.63;3.25;;;27.40;40.00;;;;;;5034380;28;20047;-65
2023/06/19 00:54:06;;;;;;;4.47;2.88;;;27.40;40.00;;;;;;5014730;28;20049;-64
2023/06/19 00:56:34;;;;;;;4.60;2.83;;;27.40;40.20;;;;;;5022715;28;20021;-64
2023/06/19 00:59:01;;;;;;;4.10;3.40;;;27.40;40.20;;;;;;5036475;28;20124;-64
2023/06/19 01:01:28;;;;;;;3.85;3.22;;;27.40;40.30;;;;;;5033450;28;21316;-62
2023/06/19 01:03:54;;;;;;;3.70;3.22;;;27.40;40.40;;;;;;5020872;28;20120;-62
2023/06/19 01:06:40;;;;;;;3.80;3.40;;;27.40;40.50;;;;;;5019247;28;20147;-62
2023/06/19 01:09:14;;;;;;;5.38;3.60;;;27.40;40.50;;;;;;5037997;28;20079;-62
2023/06/19 01:11:48;;;;;;;4.07;3.53;;;27.40;40.60;;;;;;5036356;28;20033;-62
2023/06/19 01:14:23;;;;;;;4.28;3.03;;;27.40;40.70;;;;;;5035303;28;20369;-61
2023/06/19 01:16:49;;;;;;;3.50;3.20;;;27.40;40.70;;;;;;5021320;28;20405;-61
2023/06/19 01:19:20;;;;;;;3.88;3.20;;;27.40;40.80;;;;;;5038073;28;20128;-64
2023/06/19 01:21:47;;;;;;;3.88;3.15;;;27.40;40.90;;;;;;5018214;28;20036;-61
2023/06/19 01:24:13;;;;;;;4.15;3.08;;;27.40;40.90;;;;;;5036545;28;20048;-64
2023/06/19 01:26:40;;;;;;;3.17;2.72;;;27.40;40.90;;;;;;5031342;28;20099;-63
2023/06/19 01:29:06;;;;;;;3.30;3.00;;;27.40;40.90;;;;;;5017909;28;20052;-61
2023/06/19 01:32:01;;;;;;;4.95;3.55;;;27.40;41.00;;;;;;5035235;28;20128;-62
2023/06/19 01:34:29;;;;;;;4.47;3.50;;;27.40;41.00;;;;;;5022253;28;20135;-65
2023/06/19 01:36:57;;;;;;;3.90;3.50;;;27.40;41.10;;;;;;5014113;28;20127;-65
2023/06/19 01:39:24;;;;;;;5.00;3.00;;;27.40;41.10;;;;;;5013785;28;20029;-62
2023/06/19 01:41:51;;;;;;;3.33;3.00;;;27.40;41.20;;;;;;5015238;28;20048;-61
2023/06/19 01:44:17;;;;;;;3.40;2.95;;;27.40;41.20;;;;;;5013863;28;20418;-63
2023/06/19 01:46:49;;;;;;;3.78;3.40;;;27.40;41.20;;;;;;5037268;28;20021;-63
2023/06/19 01:49:15;;;;;;;3.70;2.78;;;27.40;41.20;;;;;;5014355;28;20025;-63
2023/06/19 01:51:40;;;;;;;3.78;3.20;;;27.40;41.20;;;;;;5019331;28;20197;-62
2023/06/19 01:54:06;;;;;;;3.55;3.08;;;27.30;41.20;;;;;;5034522;28;20053;-62
2023/06/19 01:56:32;;;;;;;3.35;3.05;;;27.30;41.20;;;;;;5036864;28;20036;-61
2023/06/19 01:58:59;;;;;;;4.00;3.13;;;27.40;41.30;;;;;;5013204;28;20105;-65
2023/06/19 02:01:25;;;;;;;3.85;2.92;;;27.30;41.20;;;;;;5024274;28;20097;-64
2023/06/19 02:03:51;;;;;;;3.67;3.10;;;27.30;41.30;;;;;;5015455;28;20022;-63
2023/06/19 02:06:17;;;;;;;3.47;3.17;;;27.30;41.30;;;;;;5017618;28;20057;-65
2023/06/19 02:08:43;;;;;;;3.42;3.10;;;27.30;41.30;;;;;;5033548;28;20097;-64
2023/06/19 02:11:11;;;;;;;3.03;2.72;;;27.30;41.30;;;;;;5016841;28;20037;-64
2023/06/19 02:13:36;;;;;;;2.78;2.47;;;27.30;41.40;;;;;;5033726;28;20036;-62
2023/06/19 02:16:03;;;;;;;3.50;3.10;;;27.30;41.40;;;;;;5030602;28;20048;-65
2023/06/19 02:18:28;;;;;;;3.67;2.95;;;27.30;41.50;;;;;;5024734;28;20047;-64
2023/06/19 02:20:54;;;;;;;3.20;2.90;;;27.30;41.50;;;;;;5016492;28;20045;-61
2023/06/19 02:23:22;;;;;;;3.47;2.30;;;27.30;41.60;;;;;;5032389;28;20041;-62
2023/06/19 02:25:47;;;;;;;5.28;2.90;;;27.30;41.60;;;;;;5034644;28;20029;-63
2023/06/19 02:28:15;;;;;;;2.85;2.58;;;27.30;41.60;;;;;;5019268;28;20409;-62
2023/06/19 02:30:42;;;;;;;3.75;2.97;;;27.30;41.70;;;;;;5014552;28;20033;-62
2023/06/19 02:33:08;;;;;;;3.08;2.75;;;27.20;41.70;;;;;;5035284;28;20060;-64
2023/06/19 02:35:34;;;;;;;3.30;2.80;;;27.30;41.80;;;;;;5034185;28;20100;-62
2023/06/19 02:37:59;;;;;;;2.78;2.47;;;27.20;41.80;;;;;;5029821;28;20025;-64
2023/06/19 02:40:25;;;;;;;3.10;2.80;;;27.20;41.90;;;;;;5017177;28;20204;-63
2023/06/19 02:42:53;;;;;;;4.38;2.97;;;27.20;42.00;;;;;;5015363;28;20057;-65
2023/06/19 02:45:18;;;;;;;3.15;2.80;;;27.30;42.10;;;;;;5032335;28;20029;-64
2023/06/19 02:47:44;;;;;;;2.72;2.42;;;27.20;42.10;;;;;;5033057;28;20063;-64
2023/06/19 02:50:11;;;;;;;3.50;2.78;;;27.20;42.20;;;;;;5033258;28;20036;-65
2023/06/19 02:52:37;;;;;;;2.90;2.60;;;27.20;42.30;;;;;;5019546;28;20052;-64
2023/06/19 02:55:03;;;;;;;3.03;2.53;;;27.20;42.40;;;;;;5015281;28;21491;-61
2023/06/19 02:57:29;;;;;;;4.35;2.65;;;27.20;42.50;;;;;;5016598;28;20192;-64
2023/06/19 02:59:55;;;;;;;2.67;2.40;;;27.20;42.50;;;;;;5035320;28;20182;-62
2023/06/19 03:02:20;;;;;;;6.43;2.33;;;27.20;42.70;;;;;;5015138;28;20105;-63
2023/06/19 03:04:46;;;;;;;3.20;2.60;;;27.20;42.70;;;;;;5036198;28;20394;-61
2023/06/19 03:07:15;;;;;;;3.03;2.55;;;27.20;42.90;;;;;;5016377;28;20098;-64
2023/06/19 03:09:41;;;;;;;2.45;2.15;;;27.20;42.90;;;;;;5019735;28;20025;-63
2023/06/19 03:12:09;;;;;;;3.35;2.30;;;27.20;43.00;;;;;;5016538;28;20067;-61
2023/06/19 03:14:35;;;;;;;2.45;2.00;;;27.20;43.10;;;;;;5015157;28;20146;-63
2023/06/19 03:17:01;;;;;;;4.22;2.00;;;27.20;43.20;;;;;;5017109;28;20159;-65
2023/06/19 03:19:28;;;;;;;2.45;1.85;;;27.20;43.30;;;;;;5017303;28;20159;-64
2023/06/19 03:21:54;;;;;;;2.55;1.75;;;27.20;43.50;;;;;;5031849;28;20037;-62
2023/06/19 03:24:20;;;;;;;2.30;1.80;;;27.10;43.50;;;;;;5011646;28;20025;-60
2023/06/19 03:26:47;;;;;;;1.58;1.48;;;27.10;43.60;;;;;;5013373;28;20025;-62
2023/06/19 03:29:13;;;;;;;2.10;1.80;;;27.10;43.70;;;;;;5018656;28;20104;-65
2023/06/19 03:31:55;;;;;;;2.15;1.88;;;27.10;43.80;;;;;;5017680;28;20029;-61
2023/06/19 03:34:25;;;;;;;2.35;1.80;;;27.10;43.90;;;;;;5018477;28;20064;-62
2023/06/19 03:36:52;;;;;;;2.90;1.40;;;27.10;44.00;;;;;;5020977;28;20062;-64
2023/06/19 03:39:21;;;;;;;3.17;1.45;;;27.10;44.10;;;;;;5017857;28;20508;-64
2023/06/19 03:41:47;;;;;;;1.85;1.45;;;27.10;44.20;;;;;;5019626;28;20474;-61
2023/06/19 03:44:13;;;;;;;2.88;1.67;;;27.10;44.30;;;;;;5020859;28;20443;-61
2023/06/19 03:46:39;;;;;;;1.90;1.50;;;27.10;44.30;;;;;;5021839;28;20055;-64
2023/06/19 03:49:06;;;;;;;1.75;1.48;;;27.10;44.40;;;;;;5021823;28;20025;-62
2023/06/19 03:51:32;;;;;;;1.98;1.60;;;27.10;44.40;;;;;;5021631;28;20044;-63
2023/06/19 03:53:58;;;;;;;2.03;1.60;;;27.10;44.50;;;;;;5033601;28;20071;-62
2023/06/19 03:56:24;;;;;;;2.47;1.60;;;27.10;44.60;;;;;;5016563;28;20128;-63
2023/06/19 03:58:51;;;;;;;1.80;1.45;;;27.10;44.60;;;;;;5038543;28;20435;-62
2023/06/19 04:01:16;;;;;;;1.55;1.40;;;27.10;44.70;;;;;;5036342;28;20108;-63
2023/06/19 04:03:42;;;;;;;1.60;1.50;;;27.10;44.70;;;;;;5016100;28;20058;-63
2023/06/19 04:06:08;;;;;;;4.15;1.60;;;27.10;44.80;;;;;;5017929;28;20047;-64
2023/06/19 04:08:38;;;;;;;1.58;1.38;;;27.10;44.80;;;;;;5004741;28;20029;-65
2023/06/19 04:11:04;;;;;;;1.42;1.25;;;27.10;44.90;;;;;;5013750;28;20048;-64
2023/06/19 04:13:30;;;;;;;2.42;1.60;;;27.00;44.90;;;;;;5036197;28;20043;-65
2023/06/19 04:15:56;;;;;;;2.08;1.60;;;27.10;45.00;;;;;;5017763;28;20037;-62
2023/06/19 04:18:21;;;;;;;3.47;1.60;;;27.00;45.00;;;;;;5019427;28;20037;-62
2023/06/19 04:20:47;;;;;;;1.35;1.17;;;27.10;45.10;;;;;;5033120;28;20120;-63
2023/06/19 04:23:13;;;;;;;1.45;1.30;;;27.00;45.10;;;;;;5037594;28;20025;-63
2023/06/19 04:25:39;;;;;;;1.13;1.02;;;27.00;45.20;;;;;;5015777;28;20036;-62
2023/06/19 04:28:05;;;;;;;1.98;1.30;;;27.00;45.30;;;;;;5024178;28;20398;-65
2023/06/19 04:30:31;;;;;;;2.03;1.52;;;27.00;45.40;;;;;;5032087;28;20043;-65
2023/06/19 04:33:00;;;;;;;1.48;1.25;;;27.00;45.40;;;;;;5038155;28;20036;-61
2023/06/19 04:35:26;;;;;;;2.33;1.40;;;27.00;45.50;;;;;;5036323;28;20032;-63
2023/06/19 04:37:53;;;;;;;1.67;1.17;;;27.00;45.60;;;;;;5035970;28;20097;-62
2023/06/19 04:40:19;;;;;;;1.63;1.40;;;27.00;45.70;;;;;;5036276;28;20047;-62
2023/06/19 04:42:45;;;;;;;4.80;1.38;;;27.00;45.80;;;;;;5033164;28;20429;-63
2023/06/19 04:45:11;;;;;;;1.38;1.13;;;27.00;45.90;;;;;;5011502;28;20079;-62
2023/06/19 04:47:38;;;;;;;1.80;1.20;;;27.00;46.00;;;;;;5038484;28;20047;-64
2023/06/19 04:50:06;;;;;;;2.90;1.40;;;26.90;46.00;;;;;;5030007;28;20087;-64
2023/06/19 04:52:32;;;;;;;1.88;1.27;;;27.00;46.20;;;;;;5035913;28;20424;-64
2023/06/19 04:54:58;;;;;;;1.77;1.10;;;26.90;46.20;;;;;;5022002;28;20389;-61
2023/06/19 04:57:24;;;;;;;1.80;1.02;;;26.90;46.20;;;;;;5034032;28;20156;-63
2023/06/19 04:59:50;;;;;;;1.15;1.02;;;26.90;46.30;;;;;;5016824;28;20140;-63
2023/06/19 05:02:16;;;;;;;2.60;1.30;;;26.90;46.40;;;;;;5036390;28;20329;-62
2023/06/19 05:04:43;;;;;;;2.35;1.60;;;26.90;46.50;;;;;;5032820;28;20326;-61
2023/06/19 05:07:10;;;;;;;1.67;1.33;;;26.90;46.60;;;;;;5037870;28;20037;-63
2023/06/19 05:09:36;;;;;;;1.23;1.08;;;26.90;46.60;;;;;;5035178;28;20072;-64
2023/06/19 05:12:02;;;;;;;2.30;1.15;;;26.90;46.70;;;;;;5034903;28;20316;-63
2023/06/19 05:14:28;;;;;;;1.70;1.30;;;26.90;46.80;;;;;;5030450;28;20052;-61
2023/06/19 05:16:54;;;;;;;1.85;1.27;;;26.90;46.80;;;;;;5037917;28;20029;-64
2023/06/19 05:19:20;;;;;;;2.33;1.20;;;26.90;46.90;;;;;;5039493;28;20059;-61
2023/06/19 05:21:45;;;;;;;1.95;1.30;;;26.90;46.90;;;;;;5033836;28;20033;-65
2023/06/19 05:24:11;;;;;;;2.05;1.27;;;26.90;47.10;;;;;;5019632;28;20116;-65
2023/06/19 05:26:37;;;;;;;1.80;1.40;;;26.90;47.10;;;;;;5035952;28;20348;-61
2023/06/19 05:29:03;;;;;;;2.17;1.25;;;26.90;47.30;;;;;;5017576;28;20024;-61
2023/06/19 05:31:29;;;;;;;1.20;1.10;;;26.90;47.30;;;;;;5032820;28;20033;-65
2023/06/19 05:33:55;;;;;;;3.00;1.40;;;26.90;47.40;;;;;;5033367;28;20098;-64
2023/06/19 05:36:20;;;;;;;2.38;1.35;;;26.90;47.50;;;;;;5034748;28;20420;-64
2023/06/19 05:38:46;;;;;;;1.45;1.35;;;26.80;47.50;;;;;;5033381;28;20381;-64
2023/06/19 05:41:14;;;;;;;1.70;1.20;;;26.90;47.60;;;;;;5035059;28;20386;-62
2023/06/19 05:43:40;;;;;;;2.15;1.17;;;26.90;47.70;;;;;;5038411;28;20147;-65
2023/06/19 05:46:05;;;;;;;2.58;1.30;;;26.90;47.80;;;;;;5019411;28;20022;-64
2023/06/19 05:48:31;;;;;;;1.63;1.40;;;26.90;47.90;;;;;;5043800;28;20110;-64
2023/06/19 05:50:57;;;;;;;2.40;1.45;;;26.90;47.90;;;;;;5015632;28;20097;-62
2023/06/19 05:53:23;;;;;;;1.83;1.33;;;26.90;48.00;;;;;;5037742;28;20449;-63
2023/06/19 05:55:49;;;;;;;3.78;1.27;;;26.90;48.00;;;;;;5040557;28;20405;-64
2023/06/19 05:58:15;;;;;;;2.50;1.27;;;26.90;48.00;;;;;;5042674;28;20044;-65
2023/06/19 06:00:41;;;;;;;1.65;1.00;;;26.80;48.00;;;;;;5038274;28;20028;-61
2023/06/19 06:03:07;;;;;;;1.67;1.40;;;26.90;48.10;;;;;;5039923;28;20036;-64
2023/06/19 06:05:32;;;;;;;1.73;1.35;;;26.90;48.20;;;;;;5042285;28;20085;-63
2023/06/19 06:07:59;;;;;;;2.72;1.48;;;26.90;48.10;;;;;;5020864;28;20494;-63
2023/06/19 06:10:25;;;;;;;2.47;1.17;;;26.90;48.20;;;;;;5039080;28;20070;-61
2023/06/19 06:12:51;;;;;;;2.42;1.60;;;26.90;48.20;;;;;;5041592;28;20107;-63
2023/06/19 06:15:17;;;;;;;1.55;1.27;;;26.80;48.20;;;;;;5041791;28;20052;-64
2023/06/19 06:17:43;;;;;;;3.15;1.50;;;26.80;48.30;;;;;;5040297;28;20130;-60
2023/06/19 06:20:12;;;;;;;3.28;1.50;;;26.80;48.30;;;;;;5041304;28;20063;-63
2023/06/19 06:22:39;;;;;;;1.75;1.48;;;26.80;48.40;;;;;;5039118;28;20033;-66
2023/06/19 06:25:05;;;;;;;1.55;1.40;;;26.90;48.50;;;;;;5039517;28;20064;-63
2023/06/19 06:27:32;;;;;;;2.92;1.60;;;26.80;48.40;;;;;;5041046;28;20060;-61
2023/06/19 06:29:58;;;;;;;2.30;1.55;;;26.80;48.50;;;;;;5041676;28;20059;-59
2023/06/19 06:32:25;;;;;;;3.53;1.73;;;26.80;48.50;;;;;;5041197;28;20025;-64
2023/06/19 06:34:52;;;;;;;5.03;2.00;;;26.80;48.60;;;;;;5040089;28;20053;-64
2023/06/19 06:37:22;;;;;;;4.53;1.90;;;26.80;48.60;;;;;;5015071;28;20419;-65
2023/06/19 06:39:49;;;;;;;2.55;2.00;;;26.80;48.70;;;;;;5039301;28;20090;-63
2023/06/19 06:42:16;;;;;;;3.08;2.20;;;26.80;48.70;;;;;;5022229;28;20108;-63
2023/06/19 06:44:43;;;;;;;3.35;2.10;;;26.80;48.80;;;;;;5020747;28;20059;-64
2023/06/19 06:47:09;;;;;;;3.75;2.03;;;26.80;48.90;;;;;;5042694;28;20044;-63
2023/06/19 06:49:36;;;;;;;6.00;2.30;;;26.80;48.90;;;;;;5035322;28;20099;-63
2023/06/19 06:52:06;;;;;;;4.70;2.28;;;26.80;49.00;;;;;;5039929;28;20405;-61
2023/06/19 06:54:32;;;;;;;2.95;2.22;;;26.80;49.00;;;;;;5035599;28;20102;-60
2023/06/19 06:56:59;;;;;;;3.92;2.50;;;26.80;49.10;;;;;;5039454;28;20100;-61
2023/06/19 06:59:26;;;;;;;3.75;2.22;;;26.80;49.10;;;;;;5045626;28;20132;-63
2023/06/19 07:01:53;;;;;;;2.85;2.00;;;26.80;49.20;;;;;;5037068;28;20041;-62
2023/06/19 07:04:20;;;;;;;2.90;1.83;;;26.80;49.30;;;;;;5040645;28;20064;-63
2023/06/19 07:06:46;;;;;;;3.03;2.00;;;26.80;49.20;;;;;;5037139;28;20093;-62
2023/06/19 07:09:12;;;;;;;2.47;1.73;;;26.80;49.30;;;;;;5045824;28;20025;-62
2023/06/19 07:11:37;;;;;;;2.40;1.85;;;26.80;49.30;;;;;;5044688;28;20293;-63
2023/06/19 07:14:03;;;;;;;2.35;1.77;;;26.80;49.30;;;;;;5045217;28;20394;-62
2023/06/19 07:16:29;;;;;;;2.50;1.70;;;26.80;49.30;;;;;;5044607;28;20017;-63
2023/06/19 07:18:55;;;;;;;2.50;1.88;;;26.80;49.20;;;;;;5041540;28;20104;-61
2023/06/19 07:21:21;;;;;;;1.70;1.60;;;26.80;49.00;;;;;;5024683;28;20318;-62
2023/06/19 07:23:50;;;;;;;2.08;1.55;;;26.80;48.90;;;;;;5042867;28;20347;-61
2023/06/19 07:26:15;;;;;;;1.95;1.52;;;26.80;48.70;;;;;;5042523;28;20044;-61
2023/06/19 07:28:42;;;;;;;1.65;1.48;;;26.80;48.60;;;;;;5045064;28;20033;-63
2023/06/19 07:31:08;;;;;;;2.60;1.70;;;26.90;48.50;;;;;;5043622;28;20187;-61
2023/06/19 07:33:34;;;;;;;2.42;2.00;;;26.90;48.30;;;;;;5023957;28;20111;-63
2023/06/19 07:36:02;;;;;;;1.90;1.60;;;26.90;48.20;;;;;;5043790;28;20048;-62
2023/06/19 07:38:28;;;;;;;1.52;1.42;;;27.00;48.10;;;;;;5044385;28;20030;-61
2023/06/19 07:40:54;;;;;;;2.40;1.60;;;27.00;47.90;;;;;;5045889;28;20131;-60
2023/06/19 07:43:22;;;;;;;2.38;1.48;;;27.00;47.80;;;;;;5046390;28;20330;-61
2023/06/19 07:45:49;;;;;;;2.15;1.40;;;27.00;47.60;;;;;;5040840;28;20038;-61
2023/06/19 07:48:15;;;;;;;1.85;1.67;;;27.00;47.50;;;;;;5042744;28;20060;-61
2023/06/19 07:50:40;;;;;;;1.90;1.50;;;27.00;47.30;;;;;;5043445;28;20154;-61
2023/06/19 07:53:06;;;;;;;2.22;1.88;;;27.00;47.10;;;;;;5043004;28;20200;-63
2023/06/19 07:55:35;;;;;;;1.73;1.50;;;27.00;46.90;;;;;;5044062;28;20060;-62
2023/06/19 07:58:01;;;;;;;3.17;1.40;;;27.10;46.80;;;;;;5017860;28;20086;-62
2023/06/19 08:00:27;;;;;;;2.20;1.60;;;27.10;46.60;;;;;;5018234;28;20029;-63
2023/06/19 08:02:53;;;;;;;2.63;1.75;;;27.10;46.50;;;;;;5040197;28;20136;-60
2023/06/19 08:05:19;;;;;;;2.90;1.77;;;27.10;46.40;;;;;;5049852;28;20227;-62
2023/06/19 08:07:45;;;;;;;2.22;1.80;;;27.10;46.30;;;;;;5050094;28;20025;-64
2023/06/19 08:10:11;;;;;;;1.90;1.70;;;27.10;46.20;;;;;;5049770;28;20101;-59
2023/06/19 08:12:37;;;;;;;1.92;1.60;;;27.10;46.00;;;;;;5052788;28;20075;-63
2023/06/19 08:15:03;;;;;;;2.22;1.83;;;27.10;45.90;;;;;;5034467;28;20140;-60
2023/06/19 08:17:28;;;;;;;2.15;1.95;;;27.10;45.80;;;;;;5049786;28;20041;-59
2023/06/19 08:19:59;;;;;;;2.97;2.25;;;27.10;45.60;;;;;;5049185;28;20474;-61
2023/06/19 08:22:25;;;;;;;3.60;2.50;;;27.10;45.50;;;;;;5040412;28;20341;-61
2023/06/19 08:24:51;;;;;;;3.22;2.00;;;27.10;45.50;;;;;;5049254;28;20025;-60
2023/06/19 08:27:17;;;;;;;2.90;1.92;;;27.10;45.40;;;;;;5036387;28;20029;-60
2023/06/19 08:29:43;;;;;;;2.35;2.10;;;27.10;45.30;;;;;;5038437;28;20526;-62
2023/06/19 08:32:09;;;;;;;5.15;2.50;;;27.10;45.20;;;;;;5024922;28;20491;-66
2023/06/19 08:34:36;;;;;;;2.95;2.40;;;27.10;45.20;;;;;;5025633;28;20422;-64
2023/06/19 08:37:02;;;;;;;2.50;2.30;;;27.20;45.30;;;;;;5047815;28;20025;-63
2023/06/19 08:39:28;;;;;;;6.00;2.53;;;27.20;45.20;;;;;;5041120;28;20089;-64
2023/06/19 08:41:57;;;;;;;3.42;2.42;;;27.20;45.10;;;;;;5045661;28;20085;-63
2023/06/19 08:44:24;;;;;;;3.20;2.50;;;27.30;45.00;;;;;;5040311;28;20185;-66
2023/06/19 08:46:50;;;;;;;3.30;2.22;;;27.40;44.80;;;;;;5050102;28;20037;-65
2023/06/19 08:49:16;;;;;;;2.95;2.30;;;27.40;44.60;;;;;;5042375;28;20063;-62
2023/06/19 08:51:43;;;;;;;2.83;2.45;;;27.50;44.40;;;;;;5024030;28;20095;-61
2023/06/19 08:54:09;;;;;;;3.30;2.30;;;27.60;44.30;;;;;;5016927;28;20094;-60
2023/06/19 08:56:38;;;;;;;2.78;2.10;;;27.70;44.10;;;;;;5018992;28;20029;-64
2023/06/19 08:59:33;;;;;;;2.65;2.28;;;27.80;44.00;;;;;;5050960;28;20148;-60
2023/06/19 09:01:59;;;;;;;2.20;2.00;;;27.90;43.80;;;;;;5028552;28;20092;-60
2023/06/19 09:04:28;;;;;;;3.17;2.10;;;27.90;43.70;;;;;;5020739;28;20436;-58
2023/06/19 09:06:56;;;;;;;2.40;2.20;;;27.90;43.60;;;;;;5045899;28;20043;-60
2023/06/19 09:09:24;;;;;;;2.50;2.20;;;27.90;43.50;;;;;;5045373;28;20033;-59
2023/06/19 09:12:12;;;;;;;2.88;2.22;;;27.90;43.40;;;;;;5043640;28;20091;-62
2023/06/19 09:14:44;;;;;;;2.25;2.03;;;27.90;43.40;;;;;;5025647;28;20057;-61
2023/06/19 09:17:13;;;;;;;2.20;2.00;;;27.90;43.40;;;;;;5042384;28;20471;-61
2023/06/19 09:19:48;;;;;;;2.40;2.20;;;27.90;43.40;;;;;;5045190;28;20106;-61
2023/06/19 09:22:18;;;;;;;4.18;2.38;;;27.90;43.40;;;;;;5045581;28;20401;-63
2023/06/19 09:24:44;;;;;;;2.33;2.13;;;27.90;43.40;;;;;;5045484;28;20037;-62
2023/06/19 09:27:18;;;;;;;2.85;2.53;;;27.90;43.40;;;;;;5043806;28;20405;-60
2023/06/19 09:29:47;;;;;;;;;;;27.90;43.40;;;;;;5042712;28;20052;-60
2023/06/19 09:32:21;;;;;;;2.00;1.73;;;27.90;43.50;;;;;;5045221;28;19931;-63
2023/06/19 09:34:50;;;;;;;3.83;2.20;;;27.80;43.40;;;;;;4999450;28;20052;-59
2023/06/19 09:37:24;;;;;;;2.65;2.22;;;27.80;43.50;;;;;;5043519;28;20091;-60
2023/06/19 09:40:00;;;;;;;2.95;2.20;;;27.80;43.50;;;;;;5026775;28;20032;-60
2023/06/19 09:42:32;;;;;;;4.25;2.05;;;27.80;43.50;;;;;;5045323;28;20035;-59
2023/06/19 09:45:06;;;;;;;2.83;2.03;;;27.80;43.50;;;;;;5044802;28;20043;-61
2023/06/19 09:47:34;;;;;;;;;;;27.80;43.50;;;;;;5042520;28;20108;-58
2023/06/19 09:50:02;;;;;;;2.97;2.08;;;27.80;43.50;;;;;;5043998;28;19950;-61
2023/06/19 09:52:29;;;;;;;2.30;2.10;;;27.80;43.60;;;;;;5044234;28;20052;-61
2023/06/19 09:55:06;;;;;;;2.15;1.95;;;27.80;43.60;;;;;;5018898;28;20120;-59
2023/06/19 09:57:33;;;;;;;2.80;2.10;;;27.70;43.50;;;;;;5043623;28;20400;-62
2023/06/19 10:00:11;;;;;;;2.28;2.03;;;27.80;43.60;;;;;;5016314;28;20398;-58
2023/06/19 10:02:42;;;;;;;2.10;1.90;;;27.70;43.50;;;;;;5042583;28;20112;-62
2023/06/19 10:05:11;;;;;;;2.63;1.90;;;27.70;43.60;;;;;;5039560;28;20033;-63
2023/06/19 10:07:39;;;;;;;2.55;1.98;;;27.80;43.60;;;;;;5042597;28;20024;-61
2023/06/19 10:10:08;;;;;;;3.00;2.13;;;27.70;43.60;;;;;;5044602;28;20428;-59
2023/06/19 10:12:34;;;;;;;2.35;2.13;;;27.70;43.50;;;;;;5045994;28;20615;-61
2023/06/19 10:15:20;;;;;;;2.60;2.22;;;27.70;43.60;;;;;;5026620;28;20115;-62
2023/06/19 10:17:50;;;;;;;2.20;2.00;;;27.70;43.60;;;;;;5037772;28;20055;-62
2023/06/19 10:20:24;;;;;;;3.42;2.10;;;27.70;43.60;;;;;;5044133;28;20227;-60
2023/06/19 10:22:57;;;;;;;2.17;1.85;;;27.70;43.60;;;;;;5040786;28;20136;-60
2023/06/19 10:25:24;;;;;;;2.88;2.20;;;27.70;43.60;;;;;;5040625;28;20034;-61
2023/06/19 10:27:52;;;;;;;3.03;2.33;;;27.70;43.60;;;;;;5047969;28;20113;-61
2023/06/19 10:30:19;;;;;;;2.30;2.10;;;27.70;43.60;;;;;;5042325;28;20024;-61
2023/06/19 10:32:46;;;;;;;2.05;1.80;;;27.70;43.60;;;;;;5038809;28;20115;-61
2023/06/19 10:35:13;;;;;;;2.85;2.00;;;27.70;43.60;;;;;;5042885;28;20037;-60
2023/06/19 10:37:39;;;;;;;3.70;2.35;;;27.70;43.60;;;;;;5042449;28;20305;-60
2023/06/19 10:40:10;;;;;;;4.72;2.25;;;27.70;44.20;;;;;;5043205;28;20029;-63
2023/06/19 10:42:43;;;;;;;2.40;2.20;;;27.70;43.60;;;;;;5040307;28;20036;-59
2023/06/19 10:45:12;;;;;;;3.20;2.42;;;27.70;43.60;;;;;;5041429;28;20033;-60
2023/06/19 10:47:39;;;;;;;2.35;2.15;;;27.70;43.60;;;;;;5046144;28;20483;-61
2023/06/19 10:50:10;;;;;;;2.53;2.08;;;27.70;43.50;;;;;;5044811;28;20025;-62
2023/06/19 10:52:36;;;;;;;2.92;2.40;;;27.70;43.60;;;;;;5050593;28;20041;-61
2023/06/19 10:55:04;;;;;;;2.97;2.47;;;27.70;43.50;;;;;;5043856;28;20040;-59
2023/06/19 10:57:32;;;;;;;2.40;2.20;;;27.70;43.50;;;;;;5040446;28;20386;-60
2023/06/19 10:59:58;;;;;;;3.17;2.42;;;27.70;43.50;;;;;;5043989;28;20098;-61
2023/06/19 11:02:25;;;;;;;2.67;2.30;;;27.70;43.50;;;;;;5043383;28;20033;-60
2023/06/19 11:04:54;;;;;;;2.55;2.30;;;27.80;43.60;;;;;;5035501;28;20056;-63
2023/06/19 11:07:22;;;;;;;2.35;2.10;;;27.70;43.50;;;;;;5039449;28;20028;-58
2023/06/19 11:09:49;;;;;;;2.97;2.28;;;27.80;43.50;;;;;;5033253;28;20041;-61
2023/06/19 11:12:21;;;;;;;2.65;2.45;;;27.80;43.60;;;;;;5014744;28;20029;-62
2023/06/19 11:14:50;;;;;;;2.72;2.30;;;27.80;43.50;;;;;;5042491;28;20133;-61
2023/06/19 11:17:20;;;;;;;3.05;2.67;;;27.80;43.50;;;;;;5021352;28;20259;-61
2023/06/19 11:19:46;;;;;;;3.75;2.88;;;27.80;43.50;;;;;;5044739;28;20053;-59
2023/06/19 11:22:12;;;;;;;3.40;2.50;;;27.80;44.10;;;;;;5048360;28;20450;-60
2023/06/19 11:24:48;;;;;;;3.78;2.75;;;27.80;43.40;;;;;;5050179;28;20051;-60
2023/06/19 11:27:24;;;;;;;4.85;2.40;;;27.80;43.50;;;;;;5046406;28;20033;-58
2023/06/19 11:29:56;;;;;;;5.82;2.75;;;27.80;43.50;;;;;;5042742;28;20037;-61
2023/06/19 11:32:25;;;;;;;3.00;2.75;;;27.80;43.50;;;;;;5030117;28;20339;-60
2023/06/19 11:34:53;;;;;;;3.17;2.70;;;27.80;43.50;;;;;;5038923;28;20083;-60
2023/06/19 11:37:20;;;;;;;3.10;2.80;;;27.80;43.60;;;;;;5048190;28;20068;-62
2023/06/19 11:39:48;;;;;;;3.00;2.63;;;27.80;43.60;;;;;;5015642;28;20074;-58
2023/06/19 11:42:17;;;;;;;3.20;2.90;;;27.80;43.60;;;;;;5030605;28;20354;-62
2023/06/19 11:45:05;;;;;;;2.97;2.28;;;27.80;43.60;;;;;;5031721;28;20198;-61
2023/06/19 11:47:33;;;;;;;2.83;2.58;;;27.80;43.50;;;;;;5013559;28;20040;-58
2023/06/19 11:50:00;;;;;;;3.00;2.67;;;27.80;43.60;;;;;;5048945;28;20033;-62
2023/06/19 11:52:26;;;;;;;3.40;3.10;;;27.80;43.60;;;;;;5019438;28;20030;-59
2023/06/19 11:54:52;;;;;;;2.80;2.60;;;27.90;43.50;;;;;;5047289;28;20417;-59
2023/06/19 11:57:18;;;;;;;4.65;3.03;;;27.80;43.40;;;;;;5042623;28;20032;-61
2023/06/19 11:59:44;;;;;;;3.00;2.70;;;27.80;43.40;;;;;;5041719;28;20052;-61
2023/06/19 12:02:10;;;;;;;3.42;3.13;;;27.90;43.40;;;;;;5053322;28;20041;-63
2023/06/19 12:04:36;;;;;;;3.00;2.50;;;27.80;43.30;;;;;;5024125;28;20045;-62
2023/06/19 12:07:03;;;;;;;3.42;3.03;;;27.80;43.30;;;;;;5040860;28;20026;-59
2023/06/19 12:09:31;;;;;;;3.72;3.17;;;27.80;43.20;;;;;;5040276;28;20432;-63
2023/06/19 12:11:58;;;;;;;3.40;3.08;;;27.90;43.10;;;;;;5036534;28;20437;-61
2023/06/19 12:14:24;;;;;;;4.18;3.33;;;27.90;43.10;;;;;;5039687;28;20378;-60
2023/06/19 12:16:50;;;;;;;3.67;2.83;;;27.90;43.10;;;;;;5042458;28;20154;-61
2023/06/19 12:19:16;;;;;;;3.45;3.10;;;27.90;43.10;;;;;;4998512;28;20432;-60
2023/06/19 12:21:42;;;;;;;3.20;2.85;;;27.90;43.00;;;;;;5019739;28;20040;-63
2023/06/19 12:24:08;;;;;;;3.42;3.13;;;28.00;43.00;;;;;;5039915;28;20017;-61
2023/06/19 12:26:36;;;;;;;3.40;3.03;;;28.00;43.00;;;;;;5037980;28;20070;-60
2023/06/19 12:29:06;;;;;;;3.13;2.83;;;27.90;42.90;;;;;;5040547;28;20049;-62
2023/06/19 12:31:33;;;;;;;3.40;3.10;;;27.90;43.00;;;;;;5042936;28;20306;-62
2023/06/19 12:34:01;;;;;;;3.92;3.10;;;28.00;43.00;;;;;;5039011;28;20051;-61
2023/06/19 12:36:27;;;;;;;3.50;2.95;;;28.00;42.90;;;;;;5026497;28;20151;-60
2023/06/19 12:38:56;;;;;;;3.42;3.03;;;28.00;42.70;;;;;;5028786;28;20344;-61
2023/06/19 12:41:22;;;;;;;3.53;2.90;;;28.00;42.70;;;;;;5051099;28;20032;-60
2023/06/19 12:43:49;;;;;;;3.40;3.00;;;28.00;42.70;;;;;;5034533;28;20041;-63
2023/06/19 12:46:16;;;;;;;3.50;3.08;;;28.00;42.60;;;;;;5032197;28;20207;-64
2023/06/19 12:48:42;;;;;;;4.28;3.33;;;28.00;42.40;;;;;;5035913;28;20029;-61